sensor_id;sensor_type;location;lat;lon;timestamp;P1;durP1;ratioP1;P2;durP2;ratioP2
39180;SDS011;24906;48.262;14.264;2022-07-18T00:01:06;1.63;;;1.02;;
39180;SDS011;24906;48.262;14.264;2022-07-18T00:03:53;4.70;;;0.98;;
39180;SDS011;24906;48.262;14.264;2022-07-18T00:06:47;4.43;;;1.10;;
39180;SDS011;24906;48.262;14.264;2022-07-18T00:09:48;5.82;;;1.20;;
39180;SDS011;24906;48.262;14.264;2022-07-18T00:12:35;4.85;;;1.25;;
39180;SDS011;24906;48.262;14.264;2022-07-18T00:15:29;3.10;;;1.05;;
39180;SDS011;24906;48.262;14.264;2022-07-18T00:18:16;1.50;;;1.10;;
39180;SDS011;24906;48.262;14.264;2022-07-18T00:21:10;5.03;;;1.20;;
39180;SDS011;24906;48.262;14.264;2022-07-18T00:24:04;4.53;;;1.00;;
39180;SDS011;24906;48.262;14.264;2022-07-18T00:29:45;2.42;;;1.25;;
39180;SDS011;24906;48.262;14.264;2022-07-18T00:32:40;2.70;;;1.48;;
39180;SDS011;24906;48.262;14.264;2022-07-18T00:35:27;5.40;;;1.85;;
39180;SDS011;24906;48.262;14.264;2022-07-18T00:38:20;3.50;;;1.50;;
39180;SDS011;24906;48.262;14.264;2022-07-18T00:44:02;9.57;;;2.05;;
39180;SDS011;24906;48.262;14.264;2022-07-18T00:46:57;3.63;;;1.42;;
39180;SDS011;24906;48.262;14.264;2022-07-18T00:49:53;4.80;;;1.13;;
39180;SDS011;24906;48.262;14.264;2022-07-18T00:52:40;2.05;;;1.23;;
39180;SDS011;24906;48.262;14.264;2022-07-18T00:55:33;0.90;;;0.90;;
39180;SDS011;24906;48.262;14.264;2022-07-18T00:58:27;1.13;;;0.98;;
39180;SDS011;24906;48.262;14.264;2022-07-18T01:01:22;1.55;;;1.40;;
39180;SDS011;24906;48.262;14.264;2022-07-18T01:04:45;1.00;;;0.93;;
39180;SDS011;24906;48.262;14.264;2022-07-18T01:07:45;1.52;;;1.13;;
39180;SDS011;24906;48.262;14.264;2022-07-18T01:10:32;1.65;;;1.23;;
39180;SDS011;24906;48.262;14.264;2022-07-18T01:13:25;3.53;;;1.38;;
39180;SDS011;24906;48.262;14.264;2022-07-18T01:16:14;4.80;;;1.42;;
39180;SDS011;24906;48.262;14.264;2022-07-18T01:19:10;1.42;;;1.33;;
39180;SDS011;24906;48.262;14.264;2022-07-18T01:21:58;1.48;;;1.13;;
39180;SDS011;24906;48.262;14.264;2022-07-18T01:24:51;2.15;;;1.15;;
39180;SDS011;24906;48.262;14.264;2022-07-18T01:27:38;2.35;;;1.27;;
39180;SDS011;24906;48.262;14.264;2022-07-18T01:30:31;1.50;;;1.20;;
39180;SDS011;24906;48.262;14.264;2022-07-18T01:33:25;6.18;;;1.10;;
39180;SDS011;24906;48.262;14.264;2022-07-18T01:36:12;4.07;;;1.05;;
39180;SDS011;24906;48.262;14.264;2022-07-18T01:39:05;1.58;;;1.00;;
39180;SDS011;24906;48.262;14.264;2022-07-18T01:44:49;2.20;;;1.10;;
39180;SDS011;24906;48.262;14.264;2022-07-18T01:50:29;2.20;;;0.98;;
39180;SDS011;24906;48.262;14.264;2022-07-18T01:53:16;5.78;;;1.30;;
39180;SDS011;24906;48.262;14.264;2022-07-18T01:56:11;1.88;;;1.02;;
39180;SDS011;24906;48.262;14.264;2022-07-18T01:59:01;1.63;;;1.25;;
39180;SDS011;24906;48.262;14.264;2022-07-18T02:01:54;3.15;;;1.30;;
39180;SDS011;24906;48.262;14.264;2022-07-18T02:04:41;2.97;;;1.40;;
39180;SDS011;24906;48.262;14.264;2022-07-18T02:07:53;1.98;;;1.30;;
39180;SDS011;24906;48.262;14.264;2022-07-18T02:10:47;5.47;;;1.48;;
39180;SDS011;24906;48.262;14.264;2022-07-18T02:13:40;2.35;;;1.38;;
39180;SDS011;24906;48.262;14.264;2022-07-18T02:16:34;2.28;;;1.00;;
39180;SDS011;24906;48.262;14.264;2022-07-18T02:19:28;2.80;;;1.17;;
39180;SDS011;24906;48.262;14.264;2022-07-18T02:22:15;2.60;;;1.50;;
39180;SDS011;24906;48.262;14.264;2022-07-18T02:25:10;2.13;;;1.10;;
39180;SDS011;24906;48.262;14.264;2022-07-18T02:27:57;2.50;;;1.42;;
39180;SDS011;24906;48.262;14.264;2022-07-18T02:30:50;7.22;;;1.10;;
39180;SDS011;24906;48.262;14.264;2022-07-18T02:33:44;2.30;;;1.48;;
39180;SDS011;24906;48.262;14.264;2022-07-18T02:36:39;2.65;;;1.17;;
39180;SDS011;24906;48.262;14.264;2022-07-18T02:39:33;2.70;;;1.30;;
39180;SDS011;24906;48.262;14.264;2022-07-18T02:42:27;4.28;;;1.45;;
39180;SDS011;24906;48.262;14.264;2022-07-18T02:45:14;2.10;;;1.27;;
39180;SDS011;24906;48.262;14.264;2022-07-18T02:48:07;1.25;;;1.15;;
39180;SDS011;24906;48.262;14.264;2022-07-18T02:50:55;2.10;;;1.40;;
39180;SDS011;24906;48.262;14.264;2022-07-18T02:53:48;3.10;;;1.27;;
39180;SDS011;24906;48.262;14.264;2022-07-18T02:59:28;2.63;;;1.30;;
39180;SDS011;24906;48.262;14.264;2022-07-18T03:02:22;5.30;;;1.50;;
39180;SDS011;24906;48.262;14.264;2022-07-18T03:08:10;1.20;;;1.10;;
39180;SDS011;24906;48.262;14.264;2022-07-18T03:11:03;5.18;;;1.45;;
39180;SDS011;24906;48.262;14.264;2022-07-18T03:13:50;3.35;;;1.38;;
39180;SDS011;24906;48.262;14.264;2022-07-18T03:16:45;3.60;;;1.48;;
39180;SDS011;24906;48.262;14.264;2022-07-18T03:19:39;4.43;;;1.45;;
39180;SDS011;24906;48.262;14.264;2022-07-18T03:22:27;2.17;;;1.38;;
39180;SDS011;24906;48.262;14.264;2022-07-18T03:25:20;6.05;;;1.58;;
39180;SDS011;24906;48.262;14.264;2022-07-18T03:28:07;5.63;;;1.70;;
39180;SDS011;24906;48.262;14.264;2022-07-18T03:31:01;3.60;;;1.35;;
39180;SDS011;24906;48.262;14.264;2022-07-18T03:33:50;4.20;;;1.45;;
39180;SDS011;24906;48.262;14.264;2022-07-18T03:36:43;6.60;;;1.75;;
39180;SDS011;24906;48.262;14.264;2022-07-18T03:39:31;5.28;;;1.70;;
39180;SDS011;24906;48.262;14.264;2022-07-18T03:42:24;8.00;;;1.70;;
39180;SDS011;24906;48.262;14.264;2022-07-18T03:45:11;4.15;;;1.77;;
39180;SDS011;24906;48.262;14.264;2022-07-18T03:48:05;2.70;;;1.50;;
39180;SDS011;24906;48.262;14.264;2022-07-18T03:50:59;3.15;;;1.25;;
39180;SDS011;24906;48.262;14.264;2022-07-18T03:53:54;9.98;;;1.65;;
39180;SDS011;24906;48.262;14.264;2022-07-18T03:56:43;8.30;;;1.52;;
39180;SDS011;24906;48.262;14.264;2022-07-18T03:59:36;2.83;;;1.55;;
39180;SDS011;24906;48.262;14.264;2022-07-18T04:02:30;6.20;;;1.83;;
39180;SDS011;24906;48.262;14.264;2022-07-18T04:05:17;3.72;;;1.30;;
39180;SDS011;24906;48.262;14.264;2022-07-18T04:08:10;4.80;;;2.10;;
39180;SDS011;24906;48.262;14.264;2022-07-18T04:11:04;2.63;;;1.65;;
39180;SDS011;24906;48.262;14.264;2022-07-18T04:16:49;3.55;;;1.83;;
39180;SDS011;24906;48.262;14.264;2022-07-18T04:19:45;3.22;;;2.10;;
39180;SDS011;24906;48.262;14.264;2022-07-18T04:22:47;5.55;;;2.35;;
39180;SDS011;24906;48.262;14.264;2022-07-18T04:25:44;7.72;;;2.28;;
39180;SDS011;24906;48.262;14.264;2022-07-18T04:28:32;7.53;;;2.47;;
39180;SDS011;24906;48.262;14.264;2022-07-18T04:31:25;6.93;;;2.40;;
39180;SDS011;24906;48.262;14.264;2022-07-18T04:37:06;7.10;;;2.55;;
39180;SDS011;24906;48.262;14.264;2022-07-18T04:39:53;6.13;;;2.38;;
39180;SDS011;24906;48.262;14.264;2022-07-18T04:42:46;10.25;;;2.20;;
39180;SDS011;24906;48.262;14.264;2022-07-18T04:45:36;3.33;;;2.35;;
39180;SDS011;24906;48.262;14.264;2022-07-18T04:48:29;6.43;;;2.90;;
39180;SDS011;24906;48.262;14.264;2022-07-18T04:51:26;4.57;;;2.90;;
39180;SDS011;24906;48.262;14.264;2022-07-18T04:54:20;7.20;;;3.13;;
39180;SDS011;24906;48.262;14.264;2022-07-18T05:00:10;4.43;;;2.93;;
39180;SDS011;24906;48.262;14.264;2022-07-18T05:03:03;3.22;;;2.67;;
39180;SDS011;24906;48.262;14.264;2022-07-18T05:05:56;5.85;;;3.08;;
39180;SDS011;24906;48.262;14.264;2022-07-18T05:09:04;11.60;;;2.95;;
39180;SDS011;24906;48.262;14.264;2022-07-18T05:11:57;10.15;;;3.53;;
39180;SDS011;24906;48.262;14.264;2022-07-18T05:14:44;5.22;;;2.97;;
39180;SDS011;24906;48.262;14.264;2022-07-18T05:17:46;3.50;;;2.67;;
39180;SDS011;24906;48.262;14.264;2022-07-18T05:20:33;2.88;;;2.45;;
39180;SDS011;24906;48.262;14.264;2022-07-18T05:23:29;7.47;;;2.72;;
39180;SDS011;24906;48.262;14.264;2022-07-18T05:26:22;5.88;;;2.50;;
39180;SDS011;24906;48.262;14.264;2022-07-18T05:29:21;5.60;;;2.13;;
39180;SDS011;24906;48.262;14.264;2022-07-18T05:32:08;5.10;;;2.42;;
39180;SDS011;24906;48.262;14.264;2022-07-18T05:35:10;5.13;;;2.30;;
39180;SDS011;24906;48.262;14.264;2022-07-18T05:38:01;5.90;;;1.73;;
39180;SDS011;24906;48.262;14.264;2022-07-18T05:40:57;3.05;;;1.80;;
39180;SDS011;24906;48.262;14.264;2022-07-18T05:43:53;3.65;;;1.80;;
39180;SDS011;24906;48.262;14.264;2022-07-18T05:46:47;3.67;;;2.03;;
39180;SDS011;24906;48.262;14.264;2022-07-18T05:49:41;2.53;;;1.45;;
39180;SDS011;24906;48.262;14.264;2022-07-18T05:52:30;7.03;;;2.22;;
39180;SDS011;24906;48.262;14.264;2022-07-18T05:55:23;5.20;;;1.70;;
39180;SDS011;24906;48.262;14.264;2022-07-18T05:58:10;8.30;;;2.03;;
39180;SDS011;24906;48.262;14.264;2022-07-18T06:01:03;3.72;;;1.98;;
39180;SDS011;24906;48.262;14.264;2022-07-18T06:03:57;6.35;;;1.33;;
39180;SDS011;24906;48.262;14.264;2022-07-18T06:06:51;4.32;;;1.60;;
39180;SDS011;24906;48.262;14.264;2022-07-18T06:09:51;4.13;;;1.35;;
39180;SDS011;24906;48.262;14.264;2022-07-18T06:15:31;1.30;;;1.20;;
39180;SDS011;24906;48.262;14.264;2022-07-18T06:18:24;2.25;;;1.30;;
39180;SDS011;24906;48.262;14.264;2022-07-18T06:21:11;1.42;;;1.17;;
39180;SDS011;24906;48.262;14.264;2022-07-18T06:24:05;1.63;;;1.40;;
39180;SDS011;24906;48.262;14.264;2022-07-18T06:26:59;1.88;;;1.20;;
39180;SDS011;24906;48.262;14.264;2022-07-18T06:29:53;2.80;;;1.00;;
39180;SDS011;24906;48.262;14.264;2022-07-18T06:32:41;2.55;;;1.00;;
39180;SDS011;24906;48.262;14.264;2022-07-18T06:35:34;2.40;;;1.02;;
39180;SDS011;24906;48.262;14.264;2022-07-18T06:38:27;1.20;;;1.10;;
39180;SDS011;24906;48.262;14.264;2022-07-18T06:41:18;0.98;;;0.80;;
39180;SDS011;24906;48.262;14.264;2022-07-18T06:44:13;5.00;;;1.50;;
39180;SDS011;24906;48.262;14.264;2022-07-18T06:47:00;1.70;;;1.00;;
39180;SDS011;24906;48.262;14.264;2022-07-18T06:49:53;1.52;;;1.15;;
39180;SDS011;24906;48.262;14.264;2022-07-18T06:55:34;6.38;;;1.10;;
39180;SDS011;24906;48.262;14.264;2022-07-18T06:58:21;6.88;;;1.05;;
39180;SDS011;24906;48.262;14.264;2022-07-18T07:01:16;7.53;;;1.25;;
39180;SDS011;24906;48.262;14.264;2022-07-18T07:04:04;5.70;;;1.30;;
39180;SDS011;24906;48.262;14.264;2022-07-18T07:07:05;2.08;;;1.67;;
39180;SDS011;24906;48.262;14.264;2022-07-18T07:09:52;3.10;;;1.40;;
39180;SDS011;24906;48.262;14.264;2022-07-18T07:12:49;5.32;;;0.98;;
39180;SDS011;24906;48.262;14.264;2022-07-18T07:15:37;2.40;;;1.17;;
39180;SDS011;24906;48.262;14.264;2022-07-18T07:18:33;2.70;;;1.00;;
39180;SDS011;24906;48.262;14.264;2022-07-18T07:21:27;4.35;;;1.10;;
39180;SDS011;24906;48.262;14.264;2022-07-18T07:27:07;1.85;;;1.10;;
39180;SDS011;24906;48.262;14.264;2022-07-18T07:32:47;5.47;;;1.00;;
39180;SDS011;24906;48.262;14.264;2022-07-18T07:35:35;1.70;;;1.38;;
39180;SDS011;24906;48.262;14.264;2022-07-18T07:38:28;6.15;;;1.50;;
39180;SDS011;24906;48.262;14.264;2022-07-18T07:41:16;3.75;;;1.30;;
39180;SDS011;24906;48.262;14.264;2022-07-18T07:44:09;7.10;;;1.15;;
39180;SDS011;24906;48.262;14.264;2022-07-18T07:46:56;4.75;;;1.20;;
39180;SDS011;24906;48.262;14.264;2022-07-18T07:49:52;9.73;;;1.40;;
39180;SDS011;24906;48.262;14.264;2022-07-18T07:52:39;8.65;;;1.42;;
39180;SDS011;24906;48.262;14.264;2022-07-18T07:55:33;7.72;;;1.63;;
39180;SDS011;24906;48.262;14.264;2022-07-18T07:58:21;8.43;;;1.25;;
39180;SDS011;24906;48.262;14.264;2022-07-18T08:01:14;6.72;;;1.48;;
39180;SDS011;24906;48.262;14.264;2022-07-18T08:04:04;1.60;;;1.20;;
39180;SDS011;24906;48.262;14.264;2022-07-18T08:06:57;4.80;;;1.40;;
39180;SDS011;24906;48.262;14.264;2022-07-18T08:09:57;3.00;;;1.17;;
39180;SDS011;24906;48.262;14.264;2022-07-18T08:12:44;3.15;;;0.70;;
39180;SDS011;24906;48.262;14.264;2022-07-18T08:15:38;6.60;;;1.13;;
39180;SDS011;24906;48.262;14.264;2022-07-18T08:18:32;5.65;;;0.85;;
39180;SDS011;24906;48.262;14.264;2022-07-18T08:21:26;2.70;;;1.02;;
39180;SDS011;24906;48.262;14.264;2022-07-18T08:24:20;3.03;;;0.70;;
39180;SDS011;24906;48.262;14.264;2022-07-18T08:27:08;12.45;;;1.38;;
39180;SDS011;24906;48.262;14.264;2022-07-18T08:30:02;4.43;;;1.02;;
39180;SDS011;24906;48.262;14.264;2022-07-18T08:32:54;1.38;;;0.77;;
39180;SDS011;24906;48.262;14.264;2022-07-18T08:35:48;1.48;;;0.70;;
39180;SDS011;24906;48.262;14.264;2022-07-18T08:38:36;7.47;;;1.10;;
39180;SDS011;24906;48.262;14.264;2022-07-18T08:41:30;6.95;;;0.85;;
39180;SDS011;24906;48.262;14.264;2022-07-18T08:44:18;10.35;;;1.10;;
39180;SDS011;24906;48.262;14.264;2022-07-18T08:47:12;4.50;;;0.90;;
39180;SDS011;24906;48.262;14.264;2022-07-18T08:50:15;8.82;;;1.30;;
39180;SDS011;24906;48.262;14.264;2022-07-18T08:53:10;4.80;;;0.80;;
39180;SDS011;24906;48.262;14.264;2022-07-18T08:55:58;2.22;;;0.90;;
39180;SDS011;24906;48.262;14.264;2022-07-18T08:58:51;5.28;;;0.75;;
39180;SDS011;24906;48.262;14.264;2022-07-18T09:04:38;2.97;;;0.98;;
39180;SDS011;24906;48.262;14.264;2022-07-18T09:11:02;4.10;;;1.05;;
39180;SDS011;24906;48.262;14.264;2022-07-18T09:14:31;6.32;;;0.80;;
39180;SDS011;24906;48.262;14.264;2022-07-18T09:17:25;7.28;;;1.15;;
39180;SDS011;24906;48.262;14.264;2022-07-18T09:20:21;7.20;;;1.13;;
39180;SDS011;24906;48.262;14.264;2022-07-18T09:23:12;3.65;;;1.00;;
39180;SDS011;24906;48.262;14.264;2022-07-18T09:26:07;2.75;;;1.02;;
39180;SDS011;24906;48.262;14.264;2022-07-18T09:29:01;4.13;;;1.00;;
39180;SDS011;24906;48.262;14.264;2022-07-18T09:32:09;1.48;;;0.60;;
39180;SDS011;24906;48.262;14.264;2022-07-18T09:35:10;2.17;;;1.08;;
39180;SDS011;24906;48.262;14.264;2022-07-18T09:38:11;6.85;;;1.10;;
39180;SDS011;24906;48.262;14.264;2022-07-18T09:41:01;4.70;;;1.33;;
39180;SDS011;24906;48.262;14.264;2022-07-18T09:43:54;10.85;;;1.15;;
39180;SDS011;24906;48.262;14.264;2022-07-18T09:47:01;6.55;;;1.10;;
39180;SDS011;24906;48.262;14.264;2022-07-18T09:49:55;8.13;;;0.82;;
39180;SDS011;24906;48.262;14.264;2022-07-18T09:53:06;3.15;;;1.30;;
39180;SDS011;24906;48.262;14.264;2022-07-18T09:56:27;6.80;;;1.10;;
39180;SDS011;24906;48.262;14.264;2022-07-18T09:59:23;2.00;;;0.93;;
39180;SDS011;24906;48.262;14.264;2022-07-18T10:02:17;3.83;;;1.00;;
39180;SDS011;24906;48.262;14.264;2022-07-18T10:05:05;3.45;;;1.02;;
39180;SDS011;24906;48.262;14.264;2022-07-18T10:08:00;4.03;;;0.80;;
39180;SDS011;24906;48.262;14.264;2022-07-18T10:10:57;2.00;;;1.02;;
39180;SDS011;24906;48.262;14.264;2022-07-18T10:13:52;5.45;;;1.10;;
39180;SDS011;24906;48.262;14.264;2022-07-18T10:16:47;2.83;;;1.13;;
39180;SDS011;24906;48.262;14.264;2022-07-18T10:19:41;2.90;;;1.23;;
39180;SDS011;24906;48.262;14.264;2022-07-18T10:22:36;6.47;;;0.90;;
39180;SDS011;24906;48.262;14.264;2022-07-18T10:25:28;2.55;;;1.00;;
39180;SDS011;24906;48.262;14.264;2022-07-18T10:28:22;3.35;;;1.05;;
39180;SDS011;24906;48.262;14.264;2022-07-18T10:31:13;2.20;;;0.80;;
39180;SDS011;24906;48.262;14.264;2022-07-18T10:39:53;2.35;;;0.80;;
39180;SDS011;24906;48.262;14.264;2022-07-18T10:43:29;2.65;;;1.10;;
39180;SDS011;24906;48.262;14.264;2022-07-18T10:50:05;1.23;;;0.80;;
39180;SDS011;24906;48.262;14.264;2022-07-18T10:55:46;4.82;;;1.08;;
39180;SDS011;24906;48.262;14.264;2022-07-18T10:58:37;1.88;;;0.88;;
39180;SDS011;24906;48.262;14.264;2022-07-18T11:01:32;1.17;;;0.82;;
39180;SDS011;24906;48.262;14.264;2022-07-18T11:04:27;1.30;;;0.93;;
39180;SDS011;24906;48.262;14.264;2022-07-18T11:07:26;1.17;;;0.75;;
39180;SDS011;24906;48.262;14.264;2022-07-18T11:10:41;1.40;;;0.73;;
39180;SDS011;24906;48.262;14.264;2022-07-18T11:13:44;2.72;;;1.00;;
39180;SDS011;24906;48.262;14.264;2022-07-18T11:16:58;3.03;;;0.80;;
39180;SDS011;24906;48.262;14.264;2022-07-18T11:23:18;1.30;;;0.70;;
39180;SDS011;24906;48.262;14.264;2022-07-18T11:26:25;3.80;;;0.55;;
39180;SDS011;24906;48.262;14.264;2022-07-18T11:29:14;4.68;;;0.93;;
39180;SDS011;24906;48.262;14.264;2022-07-18T11:32:09;2.90;;;0.75;;
39180;SDS011;24906;48.262;14.264;2022-07-18T11:35:03;1.10;;;0.70;;
39180;SDS011;24906;48.262;14.264;2022-07-18T11:37:53;3.50;;;0.90;;
39180;SDS011;24906;48.262;14.264;2022-07-18T11:40:49;2.78;;;1.02;;
39180;SDS011;24906;48.262;14.264;2022-07-18T11:43:37;2.40;;;0.70;;
39180;SDS011;24906;48.262;14.264;2022-07-18T11:46:31;4.15;;;0.50;;
39180;SDS011;24906;48.262;14.264;2022-07-18T11:49:19;2.78;;;0.68;;
39180;SDS011;24906;48.262;14.264;2022-07-18T11:52:12;4.00;;;0.60;;
39180;SDS011;24906;48.262;14.264;2022-07-18T11:55:06;2.83;;;0.63;;
39180;SDS011;24906;48.262;14.264;2022-07-18T11:57:54;1.25;;;0.50;;
39180;SDS011;24906;48.262;14.264;2022-07-18T12:00:48;3.30;;;1.45;;
39180;SDS011;24906;48.262;14.264;2022-07-18T12:03:36;1.63;;;1.15;;
39180;SDS011;24906;48.262;14.264;2022-07-18T12:06:33;3.08;;;1.70;;
39180;SDS011;24906;48.262;14.264;2022-07-18T12:09:27;5.18;;;1.05;;
39180;SDS011;24906;48.262;14.264;2022-07-18T12:12:21;2.38;;;1.20;;
39180;SDS011;24906;48.262;14.264;2022-07-18T12:15:09;4.32;;;0.90;;
39180;SDS011;24906;48.262;14.264;2022-07-18T12:18:02;2.65;;;0.90;;
39180;SDS011;24906;48.262;14.264;2022-07-18T12:21:07;2.00;;;1.05;;
39180;SDS011;24906;48.262;14.264;2022-07-18T12:23:55;1.45;;;0.88;;
39180;SDS011;24906;48.262;14.264;2022-07-18T12:26:48;2.78;;;1.42;;
39180;SDS011;24906;48.262;14.264;2022-07-18T12:33:07;2.55;;;1.00;;
39180;SDS011;24906;48.262;14.264;2022-07-18T12:35:57;3.58;;;1.00;;
39180;SDS011;24906;48.262;14.264;2022-07-18T12:39:00;3.30;;;0.77;;
39180;SDS011;24906;48.262;14.264;2022-07-18T12:41:54;4.72;;;0.90;;
39180;SDS011;24906;48.262;14.264;2022-07-18T12:44:48;6.30;;;1.08;;
39180;SDS011;24906;48.262;14.264;2022-07-18T12:47:35;2.15;;;1.10;;
39180;SDS011;24906;48.262;14.264;2022-07-18T12:50:29;3.55;;;1.13;;
39180;SDS011;24906;48.262;14.264;2022-07-18T12:53:22;1.55;;;1.10;;
39180;SDS011;24906;48.262;14.264;2022-07-18T12:56:16;1.45;;;0.93;;
39180;SDS011;24906;48.262;14.264;2022-07-18T12:59:03;2.78;;;0.80;;
39180;SDS011;24906;48.262;14.264;2022-07-18T13:01:57;3.22;;;0.98;;
39180;SDS011;24906;48.262;14.264;2022-07-18T13:04:50;1.02;;;0.90;;
39180;SDS011;24906;48.262;14.264;2022-07-18T13:07:44;4.60;;;0.80;;
39180;SDS011;24906;48.262;14.264;2022-07-18T13:10:38;1.35;;;0.98;;
39180;SDS011;24906;48.262;14.264;2022-07-18T13:13:32;3.15;;;1.10;;
39180;SDS011;24906;48.262;14.264;2022-07-18T13:16:26;2.47;;;1.13;;
39180;SDS011;24906;48.262;14.264;2022-07-18T13:19:20;5.00;;;1.30;;
39180;SDS011;24906;48.262;14.264;2022-07-18T13:22:08;4.65;;;1.05;;
39180;SDS011;24906;48.262;14.264;2022-07-18T13:25:07;9.88;;;1.25;;
39180;SDS011;24906;48.262;14.264;2022-07-18T13:28:03;5.68;;;4.15;;
39180;SDS011;24906;48.262;14.264;2022-07-18T13:30:58;2.40;;;1.50;;
39180;SDS011;24906;48.262;14.264;2022-07-18T13:33:45;5.00;;;0.75;;
39180;SDS011;24906;48.262;14.264;2022-07-18T13:36:40;6.07;;;0.60;;
39180;SDS011;24906;48.262;14.264;2022-07-18T13:39:30;1.85;;;0.90;;
39180;SDS011;24906;48.262;14.264;2022-07-18T13:42:26;27.42;;;1.88;;
39180;SDS011;24906;48.262;14.264;2022-07-18T13:45:15;23.38;;;1.92;;
39180;SDS011;24906;48.262;14.264;2022-07-18T13:48:09;4.90;;;0.75;;
39180;SDS011;24906;48.262;14.264;2022-07-18T13:51:04;4.45;;;0.85;;
39180;SDS011;24906;48.262;14.264;2022-07-18T13:53:58;3.22;;;0.70;;
39180;SDS011;24906;48.262;14.264;2022-07-18T13:56:52;5.68;;;1.23;;
39180;SDS011;24906;48.262;14.264;2022-07-18T13:59:39;13.15;;;1.27;;
39180;SDS011;24906;48.262;14.264;2022-07-18T14:02:33;7.38;;;1.17;;
39180;SDS011;24906;48.262;14.264;2022-07-18T14:05:21;5.53;;;0.77;;
39180;SDS011;24906;48.262;14.264;2022-07-18T14:08:14;1.42;;;0.93;;
39180;SDS011;24906;48.262;14.264;2022-07-18T14:11:14;3.20;;;0.75;;
39180;SDS011;24906;48.262;14.264;2022-07-18T14:14:08;3.97;;;0.65;;
39180;SDS011;24906;48.262;14.264;2022-07-18T14:17:02;3.58;;;1.25;;
39180;SDS011;24906;48.262;14.264;2022-07-18T14:19:56;1.13;;;0.80;;
39180;SDS011;24906;48.262;14.264;2022-07-18T14:22:43;1.20;;;0.50;;
39180;SDS011;24906;48.262;14.264;2022-07-18T14:25:37;10.77;;;1.52;;
39180;SDS011;24906;48.262;14.264;2022-07-18T14:28:31;7.40;;;1.17;;
39180;SDS011;24906;48.262;14.264;2022-07-18T14:31:25;2.58;;;0.73;;
39180;SDS011;24906;48.262;14.264;2022-07-18T14:34:12;2.55;;;1.05;;
39180;SDS011;24906;48.262;14.264;2022-07-18T14:37:06;2.55;;;1.00;;
39180;SDS011;24906;48.262;14.264;2022-07-18T14:40:00;3.95;;;1.08;;
39180;SDS011;24906;48.262;14.264;2022-07-18T14:42:48;1.70;;;0.90;;
39180;SDS011;24906;48.262;14.264;2022-07-18T14:45:42;3.22;;;1.30;;
39180;SDS011;24906;48.262;14.264;2022-07-18T14:48:48;2.20;;;0.85;;
39180;SDS011;24906;48.262;14.264;2022-07-18T14:51:44;0.82;;;0.82;;
39180;SDS011;24906;48.262;14.264;2022-07-18T14:54:38;3.60;;;1.00;;
39180;SDS011;24906;48.262;14.264;2022-07-18T14:57:33;3.03;;;0.95;;
39180;SDS011;24906;48.262;14.264;2022-07-18T15:00:26;1.60;;;0.73;;
39180;SDS011;24906;48.262;14.264;2022-07-18T15:03:20;2.67;;;0.93;;
39180;SDS011;24906;48.262;14.264;2022-07-18T15:06:27;2.58;;;0.82;;
39180;SDS011;24906;48.262;14.264;2022-07-18T15:09:21;1.38;;;0.80;;
39180;SDS011;24906;48.262;14.264;2022-07-18T15:12:08;3.15;;;0.90;;
39180;SDS011;24906;48.262;14.264;2022-07-18T15:15:03;6.88;;;1.15;;
39180;SDS011;24906;48.262;14.264;2022-07-18T15:17:51;0.70;;;0.70;;
39180;SDS011;24906;48.262;14.264;2022-07-18T15:20:44;2.95;;;1.10;;
39180;SDS011;24906;48.262;14.264;2022-07-18T15:23:39;2.97;;;0.90;;
39180;SDS011;24906;48.262;14.264;2022-07-18T15:26:26;2.45;;;1.00;;
39180;SDS011;24906;48.262;14.264;2022-07-18T15:29:20;3.85;;;1.00;;
39180;SDS011;24906;48.262;14.264;2022-07-18T15:32:07;3.15;;;0.85;;
39180;SDS011;24906;48.262;14.264;2022-07-18T15:35:01;3.03;;;1.08;;
39180;SDS011;24906;48.262;14.264;2022-07-18T15:37:49;3.90;;;1.25;;
39180;SDS011;24906;48.262;14.264;2022-07-18T15:40:50;4.15;;;0.68;;
39180;SDS011;24906;48.262;14.264;2022-07-18T15:43:43;4.82;;;1.92;;
39180;SDS011;24906;48.262;14.264;2022-07-18T15:46:30;3.03;;;2.83;;
39180;SDS011;24906;48.262;14.264;2022-07-18T15:49:24;3.75;;;3.45;;
39180;SDS011;24906;48.262;14.264;2022-07-18T15:52:11;9.38;;;7.07;;
39180;SDS011;24906;48.262;14.264;2022-07-18T15:55:06;16.98;;;11.75;;
39180;SDS011;24906;48.262;14.264;2022-07-18T15:57:54;7.20;;;4.88;;
39180;SDS011;24906;48.262;14.264;2022-07-18T16:00:48;15.73;;;7.50;;
39180;SDS011;24906;48.262;14.264;2022-07-18T16:03:35;13.63;;;9.25;;
39180;SDS011;24906;48.262;14.264;2022-07-18T16:06:29;13.98;;;10.85;;
39180;SDS011;24906;48.262;14.264;2022-07-18T16:09:37;2.47;;;1.23;;
39180;SDS011;24906;48.262;14.264;2022-07-18T16:12:31;4.13;;;1.08;;
39180;SDS011;24906;48.262;14.264;2022-07-18T16:15:25;6.65;;;1.20;;
39180;SDS011;24906;48.262;14.264;2022-07-18T16:18:19;2.72;;;1.10;;
39180;SDS011;24906;48.262;14.264;2022-07-18T16:21:13;4.68;;;0.90;;
39180;SDS011;24906;48.262;14.264;2022-07-18T16:24:00;1.88;;;0.95;;
39180;SDS011;24906;48.262;14.264;2022-07-18T16:26:55;1.88;;;0.82;;
39180;SDS011;24906;48.262;14.264;2022-07-18T16:29:42;1.83;;;0.93;;
39180;SDS011;24906;48.262;14.264;2022-07-18T16:32:42;6.78;;;0.98;;
39180;SDS011;24906;48.262;14.264;2022-07-18T16:35:29;2.63;;;1.27;;
39180;SDS011;24906;48.262;14.264;2022-07-18T16:38:22;4.88;;;0.70;;
39180;SDS011;24906;48.262;14.264;2022-07-18T16:41:16;2.38;;;0.70;;
39180;SDS011;24906;48.262;14.264;2022-07-18T16:44:11;1.95;;;0.88;;
39180;SDS011;24906;48.262;14.264;2022-07-18T16:47:05;1.60;;;0.93;;
39180;SDS011;24906;48.262;14.264;2022-07-18T16:49:54;3.30;;;0.80;;
39180;SDS011;24906;48.262;14.264;2022-07-18T16:52:48;8.38;;;1.10;;
39180;SDS011;24906;48.262;14.264;2022-07-18T16:55:41;8.60;;;0.88;;
39180;SDS011;24906;48.262;14.264;2022-07-18T16:58:35;1.90;;;0.85;;
39180;SDS011;24906;48.262;14.264;2022-07-18T17:01:26;4.15;;;0.80;;
39180;SDS011;24906;48.262;14.264;2022-07-18T17:04:21;4.13;;;0.70;;
39180;SDS011;24906;48.262;14.264;2022-07-18T17:07:08;4.35;;;0.90;;
39180;SDS011;24906;48.262;14.264;2022-07-18T17:10:16;2.72;;;0.80;;
39180;SDS011;24906;48.262;14.264;2022-07-18T17:13:05;1.02;;;0.70;;
39180;SDS011;24906;48.262;14.264;2022-07-18T17:15:59;0.47;;;0.47;;
39180;SDS011;24906;48.262;14.264;2022-07-18T17:18:56;4.95;;;1.35;;
39180;SDS011;24906;48.262;14.264;2022-07-18T17:21:44;3.65;;;1.40;;
39180;SDS011;24906;48.262;14.264;2022-07-18T17:24:38;5.35;;;3.30;;
39180;SDS011;24906;48.262;14.264;2022-07-18T17:27:28;4.07;;;0.98;;
39180;SDS011;24906;48.262;14.264;2022-07-18T17:30:22;2.30;;;0.68;;
39180;SDS011;24906;48.262;14.264;2022-07-18T17:33:15;1.00;;;0.50;;
39180;SDS011;24906;48.262;14.264;2022-07-18T17:36:19;6.50;;;0.73;;
39180;SDS011;24906;48.262;14.264;2022-07-18T17:39:16;11.82;;;9.43;;
39180;SDS011;24906;48.262;14.264;2022-07-18T17:42:05;1.88;;;1.50;;
39180;SDS011;24906;48.262;14.264;2022-07-18T17:44:58;4.50;;;0.95;;
39180;SDS011;24906;48.262;14.264;2022-07-18T17:47:46;1.33;;;0.93;;
39180;SDS011;24906;48.262;14.264;2022-07-18T17:50:41;2.47;;;0.90;;
39180;SDS011;24906;48.262;14.264;2022-07-18T17:53:28;2.72;;;0.73;;
39180;SDS011;24906;48.262;14.264;2022-07-18T17:56:22;3.55;;;3.25;;
39180;SDS011;24906;48.262;14.264;2022-07-18T17:59:10;6.13;;;3.38;;
39180;SDS011;24906;48.262;14.264;2022-07-18T18:02:03;10.73;;;2.03;;
39180;SDS011;24906;48.262;14.264;2022-07-18T18:04:57;2.20;;;1.70;;
39180;SDS011;24906;48.262;14.264;2022-07-18T18:07:51;2.25;;;1.00;;
39180;SDS011;24906;48.262;14.264;2022-07-18T18:10:46;5.05;;;1.00;;